createdAt,value
2018-12-25T00:00:00.279Z,86.72
2018-12-25T00:01:00.287Z,86.61
2018-12-25T00:02:00.268Z,86.72
2018-12-25T00:03:00.257Z,87.13
2018-12-25T00:04:00.250Z,87.13
2018-12-25T00:05:00.241Z,86.61
2018-12-25T00:06:00.245Z,86.61
2018-12-25T00:07:00.214Z,87.13
2018-12-25T00:08:00.201Z,86.82
2018-12-25T00:09:00.193Z,86.93
2018-12-25T00:10:00.250Z,86.61
2018-12-25T00:11:00.195Z,87.13
2018-12-25T00:12:00.159Z,86.78
2018-12-25T00:13:00.149Z,87.03
2018-12-25T00:14:00.131Z,86.41
2018-12-25T00:15:00.163Z,86.68
2018-12-25T00:16:00.136Z,87.03
2018-12-25T00:17:00.149Z,86.61
2018-12-25T00:18:00.095Z,86.57
2018-12-25T00:19:06.079Z,86.51
2018-12-25T00:20:01.077Z,86.68
2018-12-25T00:21:00.191Z,86.36
2018-12-25T00:22:00.075Z,86.72
2018-12-25T00:23:00.079Z,86.51
2018-12-25T00:24:00.035Z,86.82
2018-12-25T00:25:00.025Z,86.82
2018-12-25T00:26:00.054Z,86.72
2018-12-25T00:26:59.998Z,86.72
2018-12-25T00:28:00.005Z,86.93
2018-12-25T00:28:59.988Z,86.82
2018-12-25T00:29:59.968Z,87.19
2018-12-25T00:31:00.133Z,87.19
2018-12-25T00:31:59.968Z,87.13
2018-12-25T00:32:59.939Z,87.13
2018-12-25T00:33:59.928Z,87.09
2018-12-25T00:34:59.913Z,87.13
2018-12-25T00:35:59.911Z,87.03
2018-12-25T00:36:59.911Z,87.03
2018-12-25T00:37:59.883Z,86.93
2018-12-25T00:38:59.882Z,86.82
2018-12-25T00:39:59.866Z,86.99
2018-12-25T00:40:59.855Z,87.09
2018-12-25T00:41:59.875Z,87.13
2018-12-25T00:42:59.831Z,86.88
2018-12-25T00:43:59.853Z,86.88
2018-12-25T00:44:59.853Z,87.03
2018-12-25T00:45:59.795Z,87.03
2018-12-25T00:46:59.805Z,87.09
2018-12-25T00:47:59.771Z,86.99
2018-12-25T00:48:59.775Z,87.09
2018-12-25T00:49:59.769Z,86.99
2018-12-25T00:50:59.743Z,87.30
2018-12-25T00:51:59.748Z,87.19
2018-12-25T00:52:59.721Z,86.99
2018-12-25T00:53:59.721Z,87.92
2018-12-25T00:54:59.700Z,88.34
2018-12-25T00:55:59.695Z,88.23
2018-12-25T00:56:59.893Z,88.23
2018-12-25T00:57:59.686Z,87.82
2018-12-25T00:58:59.661Z,87.61
2018-12-25T00:59:59.657Z,87.82
2018-12-25T01:00:59.638Z,87.61
2018-12-25T01:01:59.654Z,87.82
2018-12-25T01:02:59.623Z,87.92
2018-12-25T01:03:59.623Z,87.71
2018-12-25T01:04:59.593Z,88.54
2018-12-25T01:05:59.581Z,87.92
2018-12-25T01:06:59.598Z,88.44
2018-12-25T01:07:59.569Z,89.06
2018-12-25T01:08:59.570Z,88.75
2018-12-25T01:09:59.547Z,89.48
2018-12-25T01:10:59.533Z,89.79
2018-12-25T01:11:59.550Z,90.14
2018-12-25T01:12:59.513Z,90.87
2018-12-25T01:13:59.655Z,90.56
2018-12-25T01:14:59.494Z,90.97
2018-12-25T01:15:59.480Z,91.18
2018-12-25T01:16:59.552Z,91.39
2018-12-25T01:17:59.459Z,91.28
2018-12-25T01:18:59.457Z,91.60
2018-12-25T01:19:59.440Z,91.80
2018-12-25T01:20:59.440Z,92.01
2018-12-25T01:21:59.430Z,92.11
2018-12-25T01:22:59.437Z,92.53
2018-12-25T01:23:59.395Z,93.05
2018-12-25T01:24:59.386Z,92.84
2018-12-25T01:25:59.398Z,92.74
2018-12-25T01:26:59.368Z,92.94
2018-12-25T01:27:59.371Z,93.05
2018-12-25T01:28:59.351Z,93.05
2018-12-25T01:29:59.337Z,92.84
2018-12-25T01:30:59.339Z,93.16
2018-12-25T01:31:59.314Z,93.16
2018-12-25T01:32:59.319Z,92.94
2018-12-25T01:33:59.314Z,92.84
2018-12-25T01:34:59.280Z,92.84
2018-12-25T01:35:59.273Z,92.94
2018-12-25T01:36:59.278Z,92.94
2018-12-25T01:37:59.260Z,93.01
2018-12-25T01:38:59.252Z,92.84
2018-12-25T01:39:59.240Z,92.84
2018-12-25T01:40:59.217Z,92.84
2018-12-25T01:41:59.213Z,92.69
2018-12-25T01:42:59.219Z,92.53
2018-12-25T01:43:59.193Z,92.69
2018-12-25T01:44:59.188Z,92.74
2018-12-25T01:45:59.169Z,92.90
2018-12-25T01:46:59.165Z,92.63
2018-12-25T01:47:59.165Z,92.94
2018-12-25T01:48:59.134Z,92.63
2018-12-25T01:49:59.128Z,92.90
2018-12-25T01:50:59.116Z,92.18
2018-12-25T01:51:59.102Z,91.86
2018-12-25T01:52:59.113Z,92.38
2018-12-25T01:53:59.085Z,93.01
2018-12-25T01:54:59.679Z,92.69
2018-12-25T01:55:59.068Z,92.90
2018-12-25T01:56:59.059Z,92.90
2018-12-25T01:57:59.073Z,92.59
2018-12-25T01:58:59.063Z,91.97
2018-12-25T01:59:59.047Z,92.07
2018-12-25T02:00:59.006Z,92.07
2018-12-25T02:01:59.024Z,92.69
2018-12-25T02:02:58.987Z,92.49
2018-12-25T02:03:59.011Z,92.80
2018-12-25T02:04:58.970Z,92.90
2018-12-25T02:05:58.989Z,92.69
2018-12-25T02:06:58.947Z,92.49
2018-12-25T02:07:59.000Z,92.59
2018-12-25T02:08:58.949Z,92.69
2018-12-25T02:09:58.941Z,92.59
2018-12-25T02:10:58.907Z,91.97
2018-12-25T02:11:58.899Z,91.86
2018-12-25T02:12:58.881Z,92.28
2018-12-25T02:13:58.887Z,92.07
2018-12-25T02:14:58.865Z,91.93
2018-12-25T02:15:58.850Z,91.83
2018-12-25T02:16:58.858Z,91.93
2018-12-25T02:17:58.841Z,92.49
2018-12-25T02:18:58.837Z,91.93
2018-12-25T02:19:58.814Z,91.86
2018-12-25T02:20:58.801Z,92.45
2018-12-25T02:21:58.790Z,92.07
2018-12-25T02:22:58.792Z,92.28
2018-12-25T02:23:58.785Z,92.38
2018-12-25T02:24:58.751Z,93.01
2018-12-25T02:25:58.755Z,93.12
2018-12-25T02:26:58.741Z,93.18
2018-12-25T02:27:58.723Z,93.38
2018-12-25T02:28:58.728Z,93.32
2018-12-25T02:29:58.726Z,93.28
2018-12-25T02:30:58.761Z,93.74
2018-12-25T02:31:58.688Z,93.95
2018-12-25T02:32:58.680Z,94.11
2018-12-25T02:33:58.677Z,94.01
2018-12-25T02:34:58.772Z,94.21
2018-12-25T02:35:58.642Z,94.11
2018-12-25T02:36:58.633Z,94.05
2018-12-25T02:37:58.637Z,94.32
2018-12-25T02:38:58.638Z,94.05
2018-12-25T02:39:58.605Z,93.84
2018-12-25T02:40:58.594Z,93.95
2018-12-25T02:41:58.582Z,93.95
2018-12-25T02:42:58.571Z,93.90
2018-12-25T02:43:58.590Z,93.74
2018-12-25T02:44:58.554Z,94.05
2018-12-25T02:45:58.540Z,93.84
2018-12-25T02:46:58.524Z,93.80
2018-12-25T02:47:58.515Z,94.05
2018-12-25T02:48:58.510Z,93.70
2018-12-25T02:49:58.529Z,93.49
2018-12-25T02:50:58.501Z,93.53
2018-12-25T02:51:58.475Z,94.05
2018-12-25T02:52:58.462Z,93.90
2018-12-25T02:53:58.471Z,93.90
2018-12-25T02:54:58.453Z,93.95
2018-12-25T02:55:58.438Z,93.84
2018-12-25T02:56:58.416Z,93.53
2018-12-25T02:57:58.454Z,93.70
2018-12-25T02:58:58.401Z,93.28
2018-12-25T02:59:58.409Z,93.70
2018-12-25T03:00:58.399Z,94.11
2018-12-25T03:01:58.378Z,94.42
2018-12-25T03:02:58.368Z,95.09
2018-12-25T03:03:58.352Z,94.94
2018-12-25T03:04:58.359Z,95.09
2018-12-25T03:05:58.330Z,95.15
2018-12-25T03:06:59.151Z,95.15
2018-12-25T03:07:58.304Z,95.15
2018-12-25T03:08:58.298Z,95.36
2018-12-25T03:09:58.304Z,95.36
2018-12-25T03:10:58.279Z,95.98
2018-12-25T03:11:58.261Z,96.23
2018-12-25T03:12:58.254Z,96.08
2018-12-25T03:13:58.246Z,95.92
2018-12-25T03:14:58.252Z,95.92
2018-12-25T03:15:58.227Z,95.87
2018-12-25T03:16:58.224Z,96.02
2018-12-25T03:17:58.201Z,95.98
2018-12-25T03:18:58.199Z,95.56
2018-12-25T03:20:00.048Z,95.29
2018-12-25T03:20:58.170Z,95.61
2018-12-25T03:21:58.168Z,96.08
2018-12-25T03:22:58.152Z,96.02
2018-12-25T03:23:58.137Z,96.02
2018-12-25T03:24:58.126Z,95.98
2018-12-25T03:25:58.152Z,95.71
2018-12-25T03:26:58.113Z,95.87
2018-12-25T03:27:58.095Z,96.02
2018-12-25T03:28:58.096Z,95.61
2018-12-25T03:29:58.120Z,95.40
2018-12-25T03:30:58.087Z,95.40
2018-12-25T03:31:58.058Z,95.67
2018-12-25T03:32:58.046Z,95.67
2018-12-25T03:33:58.035Z,95.61
2018-12-25T03:34:58.020Z,95.46
2018-12-25T03:35:58.041Z,95.15
2018-12-25T03:36:58.012Z,95.61
2018-12-25T03:37:57.994Z,95.25
2018-12-25T03:38:57.990Z,95.25
2018-12-25T03:39:57.970Z,95.15
2018-12-25T03:40:57.980Z,95.25
2018-12-25T03:41:57.955Z,94.53
2018-12-25T03:42:57.948Z,94.94
2018-12-25T03:43:57.936Z,95.15
2018-12-25T03:44:57.925Z,95.04
2018-12-25T03:45:57.942Z,95.25
2018-12-25T03:46:57.893Z,94.94
2018-12-25T03:47:57.896Z,94.94
2018-12-25T03:48:57.872Z,94.21
2018-12-25T03:49:57.871Z,94.01
2018-12-25T03:50:57.872Z,93.70
2018-12-25T03:51:57.843Z,93.80
2018-12-25T03:52:57.838Z,93.65
2018-12-25T03:53:57.825Z,93.13
2018-12-25T03:54:57.809Z,93.23
2018-12-25T03:55:57.817Z,93.44
2018-12-25T03:56:57.797Z,93.65
2018-12-25T03:57:57.778Z,93.85
2018-12-25T03:58:57.768Z,93.96
2018-12-25T03:59:57.766Z,93.85
2018-12-25T04:00:57.775Z,93.85
2018-12-25T04:01:57.741Z,93.85
2018-12-25T04:02:57.728Z,93.18
2018-12-25T04:03:57.723Z,93.23
2018-12-25T04:04:57.712Z,93.75
2018-12-25T04:05:57.748Z,93.13
2018-12-25T04:06:57.708Z,93.54
2018-12-25T04:07:57.683Z,93.33
2018-12-25T04:08:57.666Z,93.13
2018-12-25T04:09:57.657Z,93.02
2018-12-25T04:10:57.643Z,93.02
2018-12-25T04:11:57.658Z,93.33
2018-12-25T04:12:57.637Z,93.49
2018-12-25T04:13:57.617Z,93.23
2018-12-25T04:14:57.614Z,93.23
2018-12-25T04:15:57.599Z,93.44
2018-12-25T04:16:57.604Z,92.93
2018-12-25T04:17:57.573Z,93.33
2018-12-25T04:19:58.630Z,93.54
2018-12-25T04:20:57.539Z,92.82
2018-12-25T04:21:57.550Z,93.02
2018-12-25T04:22:57.529Z,92.93
2018-12-25T04:23:57.523Z,93.13
2018-12-25T04:24:57.499Z,93.02
2018-12-25T04:25:57.486Z,92.61
2018-12-25T04:26:57.502Z,92.51
2018-12-25T04:27:57.461Z,92.61
2018-12-25T04:28:57.471Z,92.61
2018-12-25T04:29:57.477Z,92.72
2018-12-25T04:30:57.439Z,93.02
2018-12-25T04:31:57.443Z,92.93
2018-12-25T04:32:57.417Z,92.93
2018-12-25T04:33:57.402Z,92.93
2018-12-25T04:34:57.407Z,92.61
2018-12-25T04:35:57.381Z,92.61
2018-12-25T04:36:57.398Z,92.72
2018-12-25T04:37:57.369Z,92.10
2018-12-25T04:38:57.372Z,91.78
2018-12-25T04:39:57.339Z,92.20
2018-12-25T04:40:57.333Z,91.89
2018-12-25T04:41:57.382Z,91.47
2018-12-25T04:42:57.309Z,91.99
2018-12-25T04:43:57.297Z,91.89
2018-12-25T04:44:57.286Z,91.99
2018-12-25T04:45:57.273Z,91.99
2018-12-25T04:46:57.286Z,91.68
2018-12-25T04:47:57.268Z,91.58
2018-12-25T04:48:57.244Z,91.47
2018-12-25T04:49:57.237Z,91.58
2018-12-25T04:50:57.224Z,91.27
2018-12-25T04:51:57.244Z,91.47
2018-12-25T04:52:57.206Z,91.58
2018-12-25T04:53:57.191Z,91.47
2018-12-25T04:54:57.181Z,91.16
2018-12-25T04:55:57.170Z,91.06
2018-12-25T04:56:57.168Z,91.27
2018-12-25T04:57:57.173Z,91.16
2018-12-25T04:58:57.151Z,91.06
2018-12-25T04:59:57.131Z,90.44
2018-12-25T05:00:57.116Z,91.31
2018-12-25T05:01:57.109Z,91.27
2018-12-25T05:02:57.181Z,91.27
2018-12-25T05:03:57.088Z,90.95
2018-12-25T05:04:57.079Z,91.27
2018-12-25T05:05:57.063Z,90.85
2018-12-25T05:06:57.074Z,90.69
2018-12-25T05:07:57.062Z,91.37
2018-12-25T05:08:57.030Z,91.00
2018-12-25T05:09:57.035Z,91.27
2018-12-25T05:10:57.025Z,90.48
2018-12-25T05:11:57.005Z,90.79
2018-12-25T05:12:57.043Z,91.00
2018-12-25T05:13:56.981Z,91.20
2018-12-25T05:14:56.994Z,90.79
2018-12-25T05:15:56.965Z,90.85
2018-12-25T05:16:56.965Z,90.85
2018-12-25T05:17:56.960Z,91.00
2018-12-25T05:18:56.929Z,90.89
2018-12-25T05:19:56.917Z,90.89
2018-12-25T05:20:56.906Z,90.89
2018-12-25T05:21:56.903Z,90.79
2018-12-25T05:22:56.906Z,90.37
2018-12-25T05:23:56.873Z,90.17
2018-12-25T05:24:56.868Z,89.75
2018-12-25T05:25:56.854Z,89.86
2018-12-25T05:26:56.840Z,89.75
2018-12-25T05:27:56.851Z,89.65
2018-12-25T05:28:56.830Z,89.86
2018-12-25T05:29:56.813Z,89.75
2018-12-25T05:30:56.804Z,90.06
2018-12-25T05:31:56.795Z,89.75
2018-12-25T05:32:56.804Z,89.96
2018-12-25T05:33:56.776Z,89.65
2018-12-25T05:34:56.767Z,89.34
2018-12-25T05:35:56.749Z,89.03
2018-12-25T05:36:56.743Z,89.23
2018-12-25T05:37:56.743Z,89.23
2018-12-25T05:38:56.723Z,89.54
2018-12-25T05:39:56.709Z,89.54
2018-12-25T05:40:56.698Z,89.54
2018-12-25T05:41:56.700Z,89.34
2018-12-25T05:42:56.701Z,88.82
2018-12-25T05:43:56.669Z,89.13
2018-12-25T05:44:56.658Z,88.92
2018-12-25T05:45:56.652Z,89.23
2018-12-25T05:46:56.657Z,89.13
2018-12-25T05:47:56.627Z,88.92
2018-12-25T05:48:56.632Z,88.92
2018-12-25T05:49:56.609Z,88.51
2018-12-25T05:50:56.605Z,89.44
2018-12-25T05:51:56.589Z,89.23
2018-12-25T05:52:56.580Z,89.34
2018-12-25T05:53:56.601Z,88.40
2018-12-25T05:54:56.552Z,88.40
2018-12-25T05:55:56.543Z,88.61
2018-12-25T05:56:56.527Z,88.40
2018-12-25T05:57:56.525Z,87.68
2018-12-25T05:58:56.532Z,87.78
2018-12-25T05:59:56.503Z,87.88
2018-12-25T06:00:56.487Z,87.88
2018-12-25T06:01:56.493Z,87.47
2018-12-25T06:02:56.467Z,87.68
2018-12-25T06:03:56.505Z,87.68
2018-12-25T06:04:56.447Z,87.88
2018-12-25T06:05:56.435Z,87.37
2018-12-25T06:06:56.419Z,87.37
2018-12-25T06:07:56.439Z,88.20
2018-12-25T06:08:56.443Z,87.99
2018-12-25T06:09:56.407Z,87.78
2018-12-25T06:10:56.425Z,87.88
2018-12-25T06:11:56.369Z,88.20
2018-12-25T06:12:56.361Z,88.40
2018-12-25T06:13:56.381Z,87.16
2018-12-25T06:14:56.347Z,86.95
2018-12-25T06:15:56.345Z,88.30
2018-12-25T06:16:56.356Z,87.26
2018-12-25T06:17:56.324Z,87.26
2018-12-25T06:18:56.753Z,87.05
2018-12-25T06:19:56.305Z,86.95
2018-12-25T06:20:56.295Z,86.74
2018-12-25T06:21:56.283Z,86.95
2018-12-25T06:22:56.257Z,87.05
2018-12-25T06:23:56.248Z,87.16
2018-12-25T06:24:56.274Z,86.85
2018-12-25T06:25:56.337Z,87.05
2018-12-25T06:26:56.221Z,86.95
2018-12-25T06:27:56.199Z,86.85
2018-12-25T06:28:56.194Z,87.16
2018-12-25T06:29:56.202Z,86.54
2018-12-25T06:30:56.193Z,86.64
2018-12-25T06:31:56.164Z,86.64
2018-12-25T06:32:56.165Z,86.64
2018-12-25T06:33:56.141Z,86.64
2018-12-25T06:34:56.148Z,86.43
2018-12-25T06:35:56.122Z,86.64
2018-12-25T06:36:56.119Z,86.64
2018-12-25T06:37:56.103Z,86.54
2018-12-25T06:38:56.107Z,86.33
2018-12-25T06:39:56.111Z,86.64
2018-12-25T06:40:56.073Z,86.54
2018-12-25T06:41:56.060Z,86.33
2018-12-25T06:42:56.076Z,86.33
2018-12-25T06:43:56.038Z,86.18
2018-12-25T06:44:56.048Z,86.08
2018-12-25T06:45:56.012Z,86.39
2018-12-25T06:46:56.004Z,86.33
2018-12-25T06:47:55.993Z,86.39
2018-12-25T06:48:56.001Z,86.08
2018-12-25T06:49:55.988Z,85.56
2018-12-25T06:51:03.509Z,85.87
2018-12-25T06:51:56.949Z,85.66
2018-12-25T06:52:55.947Z,85.71
2018-12-25T06:53:55.939Z,85.87
2018-12-25T06:54:55.947Z,85.35
2018-12-25T06:55:55.917Z,85.14
2018-12-25T06:56:55.921Z,85.56
2018-12-25T06:57:55.893Z,85.56
2018-12-25T06:58:55.881Z,85.77
2018-12-25T06:59:55.900Z,85.87
2018-12-25T07:00:55.858Z,85.56
2018-12-25T07:01:55.850Z,85.25
2018-12-25T07:02:55.858Z,85.87
2018-12-25T07:03:55.823Z,86.18
2018-12-25T07:04:55.831Z,85.91
2018-12-25T07:05:55.811Z,85.87
2018-12-25T07:06:55.795Z,86.18
2018-12-25T07:07:55.790Z,86.80
2018-12-25T07:08:55.785Z,86.70
2018-12-25T07:09:55.802Z,86.64
2018-12-25T07:10:55.753Z,86.91
2018-12-25T07:11:55.749Z,86.60
2018-12-25T07:12:55.733Z,86.60
2018-12-25T07:13:55.727Z,87.05
2018-12-25T07:14:55.709Z,87.22
2018-12-25T07:15:55.718Z,87.12
2018-12-25T07:16:55.685Z,87.05
2018-12-25T07:17:55.688Z,88.36
2018-12-25T07:18:55.674Z,87.53
2018-12-25T07:19:55.664Z,87.95
2018-12-25T07:20:55.673Z,87.74
2018-12-25T07:21:55.642Z,88.30
2018-12-25T07:22:55.629Z,88.51
2018-12-25T07:23:55.617Z,88.92
2018-12-25T07:24:55.608Z,89.34
2018-12-25T07:25:55.623Z,89.44
2018-12-25T07:26:55.584Z,89.44
2018-12-25T07:27:55.575Z,89.44
2018-12-25T07:28:55.568Z,91.00
2018-12-25T07:29:55.557Z,91.00
2018-12-25T07:30:55.576Z,90.58
2018-12-25T07:31:55.532Z,90.52
2018-12-25T07:32:55.522Z,91.00
2018-12-25T07:33:55.508Z,91.00
2018-12-25T07:34:55.500Z,91.10
2018-12-25T07:35:55.508Z,91.20
2018-12-25T07:36:55.478Z,90.89
2018-12-25T07:37:55.478Z,91.10
2018-12-25T07:38:55.455Z,91.35
2018-12-25T07:39:55.451Z,91.83
2018-12-25T07:40:55.458Z,91.31
2018-12-25T07:41:55.430Z,91.72
2018-12-25T07:42:55.415Z,91.31
2018-12-25T07:43:55.426Z,91.20
2018-12-25T07:44:55.394Z,91.31
2018-12-25T07:45:55.785Z,91.41
2018-12-25T07:46:55.382Z,91.62
2018-12-25T07:47:55.364Z,91.41
2018-12-25T07:48:55.361Z,91.31
2018-12-25T07:49:55.364Z,91.31
2018-12-25T07:50:55.361Z,91.41
2018-12-25T07:51:55.398Z,91.20
2018-12-25T07:52:55.314Z,91.00
2018-12-25T07:53:56.181Z,91.00
2018-12-25T07:54:55.301Z,91.31
2018-12-25T07:55:55.286Z,91.20
2018-12-25T07:56:55.298Z,91.00
2018-12-25T07:57:55.260Z,91.10
2018-12-25T07:58:55.250Z,91.31
2018-12-25T07:59:55.243Z,91.20
2018-12-25T08:00:55.237Z,91.10
2018-12-25T08:01:55.285Z,91.00
2018-12-25T08:02:55.211Z,91.10
2018-12-25T08:03:55.210Z,90.89
2018-12-25T08:04:55.188Z,90.69
2018-12-25T08:05:55.179Z,90.64
2018-12-25T08:06:55.187Z,90.64
2018-12-25T08:07:55.170Z,90.64
2018-12-25T08:08:55.142Z,90.69
2018-12-25T08:09:55.136Z,90.48
2018-12-25T08:10:55.732Z,90.69
2018-12-25T08:11:55.122Z,90.79
2018-12-25T08:12:55.107Z,90.79
2018-12-25T08:13:55.092Z,90.58
2018-12-25T08:14:55.076Z,90.75
2018-12-25T08:15:55.106Z,90.85
2018-12-25T08:16:55.082Z,89.75
2018-12-25T08:17:55.051Z,89.61
2018-12-25T08:18:55.043Z,89.50
2018-12-25T08:19:55.025Z,89.50
2018-12-25T08:20:55.016Z,89.92
2018-12-25T08:21:55.021Z,89.61
2018-12-25T08:23:02.393Z,89.50
2018-12-25T08:23:55.995Z,89.29
2018-12-25T08:24:54.983Z,88.98
2018-12-25T08:25:54.963Z,88.98
2018-12-25T08:26:54.971Z,88.98
2018-12-25T08:27:54.949Z,88.88
2018-12-25T08:28:54.943Z,88.36
2018-12-25T08:29:54.925Z,89.09
2018-12-25T08:30:54.915Z,88.88
2018-12-25T08:31:54.926Z,89.09
2018-12-25T08:32:54.893Z,88.42
2018-12-25T08:33:54.883Z,87.74
2018-12-25T08:34:54.869Z,87.95
2018-12-25T08:35:54.856Z,88.26
2018-12-25T08:36:54.873Z,87.84
2018-12-25T08:37:54.837Z,88.11
2018-12-25T08:38:54.833Z,87.70
2018-12-25T08:39:54.831Z,87.80
2018-12-25T08:40:54.810Z,87.95
2018-12-25T08:41:54.825Z,86.91
2018-12-25T08:42:54.821Z,86.87
2018-12-25T08:43:54.771Z,86.87
2018-12-25T08:44:54.767Z,86.76
2018-12-25T08:45:54.766Z,87.18
2018-12-25T08:46:54.748Z,86.87
2018-12-25T08:47:54.775Z,86.87
2018-12-25T08:48:54.725Z,86.25
2018-12-25T08:49:54.713Z,86.66
2018-12-25T08:50:54.705Z,86.45
2018-12-25T08:51:54.694Z,86.76
2018-12-25T08:52:54.707Z,86.35
2018-12-25T08:53:54.669Z,86.25
2018-12-25T08:54:54.655Z,86.62
2018-12-25T08:55:54.649Z,86.35
2018-12-25T08:56:54.634Z,85.83
2018-12-25T08:57:54.957Z,85.83
2018-12-25T08:58:54.621Z,85.31
2018-12-25T08:59:54.607Z,86.10
2018-12-25T09:00:54.599Z,86.00
2018-12-25T09:01:54.583Z,85.79
2018-12-25T09:02:54.597Z,86.04
2018-12-25T09:03:54.577Z,85.73
2018-12-25T09:04:54.555Z,85.69
2018-12-25T09:05:54.555Z,85.48
2018-12-25T09:06:54.547Z,85.58
2018-12-25T09:07:54.537Z,85.89
2018-12-25T09:08:54.511Z,86.10
2018-12-25T09:09:54.515Z,85.79
2018-12-25T09:10:54.487Z,85.17
2018-12-25T09:11:54.484Z,85.38
2018-12-25T09:12:54.488Z,85.38
2018-12-25T09:13:54.470Z,85.27
2018-12-25T09:14:54.445Z,85.38
2018-12-25T09:15:54.441Z,85.38
2018-12-25T09:16:54.426Z,84.86
2018-12-25T09:17:54.433Z,84.44
2018-12-25T09:18:54.405Z,84.55
2018-12-25T09:19:54.392Z,84.96
2018-12-25T09:20:54.381Z,85.17
2018-12-25T09:21:54.375Z,85.17
2018-12-25T09:22:54.388Z,85.17
2018-12-25T09:23:54.357Z,84.44
2018-12-25T09:24:54.334Z,84.23
2018-12-25T09:25:54.337Z,84.75
2018-12-25T09:26:54.316Z,85.06
2018-12-25T09:27:54.315Z,84.75
2018-12-25T09:28:54.323Z,85.06
2018-12-25T09:29:54.287Z,84.61
2018-12-25T09:30:54.283Z,84.41
2018-12-25T09:31:54.261Z,84.51
2018-12-25T09:32:54.258Z,84.86
2018-12-25T09:33:54.291Z,84.86
2018-12-25T09:34:54.249Z,84.72
2018-12-25T09:35:54.223Z,85.03
2018-12-25T09:36:54.226Z,84.20
2018-12-25T09:37:54.207Z,85.03
2018-12-25T09:38:54.206Z,85.03
2018-12-25T09:39:54.175Z,85.24
2018-12-25T09:40:56.256Z,85.03
2018-12-25T09:41:54.158Z,85.13
2018-12-25T09:42:54.149Z,84.72
2018-12-25T09:43:54.151Z,84.72
2018-12-25T09:44:54.138Z,84.82
2018-12-25T09:45:54.117Z,84.92
2018-12-25T09:46:54.108Z,84.41
2018-12-25T09:47:54.095Z,84.20
2018-12-25T09:48:54.117Z,84.61
2018-12-25T09:49:54.079Z,84.82
2018-12-25T09:50:54.075Z,84.82
2018-12-25T09:51:54.663Z,84.82
2018-12-25T09:52:54.057Z,85.03
2018-12-25T09:53:54.054Z,84.51
2018-12-25T09:54:54.019Z,84.61
2018-12-25T09:55:54.014Z,84.51
2018-12-25T09:56:54.032Z,84.92
2018-12-25T09:57:53.995Z,84.92
2018-12-25T09:58:54.039Z,84.41
2018-12-25T09:59:53.970Z,84.82
2018-12-25T10:00:53.959Z,84.82
2018-12-25T10:01:53.949Z,84.20
2018-12-25T10:02:53.950Z,84.92
2018-12-25T10:03:53.959Z,84.20
2018-12-25T10:04:53.923Z,84.78
2018-12-25T10:05:53.905Z,84.16
2018-12-25T10:06:53.896Z,84.68
2018-12-25T10:07:53.890Z,84.68
2018-12-25T10:08:53.872Z,83.95
2018-12-25T10:09:53.915Z,84.16
2018-12-25T10:10:53.850Z,84.06
2018-12-25T10:11:53.834Z,84.16
2018-12-25T10:12:53.832Z,84.16
2018-12-25T10:13:53.828Z,83.85
2018-12-25T10:14:53.835Z,84.16
2018-12-25T10:15:53.804Z,84.06
2018-12-25T10:16:53.783Z,83.64
2018-12-25T10:17:53.773Z,83.64
2018-12-25T10:18:53.773Z,83.33
2018-12-25T10:19:53.785Z,83.64
2018-12-25T10:20:53.743Z,83.44
2018-12-25T10:21:53.743Z,83.50
2018-12-25T10:22:53.771Z,83.75
2018-12-25T10:23:53.711Z,83.33
2018-12-25T10:24:53.713Z,83.64
2018-12-25T10:25:53.704Z,83.50
2018-12-25T10:26:53.682Z,82.98
2018-12-25T10:27:53.673Z,83.40
2018-12-25T10:28:53.666Z,83.09
2018-12-25T10:29:53.668Z,82.57
2018-12-25T10:30:53.640Z,82.46
2018-12-25T10:31:53.626Z,82.67
2018-12-25T10:32:53.616Z,82.78
2018-12-25T10:33:53.612Z,82.67
2018-12-25T10:34:53.620Z,82.57
2018-12-25T10:35:53.589Z,82.57
2018-12-25T10:36:53.580Z,82.78
2018-12-25T10:37:53.561Z,82.67
2018-12-25T10:38:53.556Z,82.78
2018-12-25T10:39:53.564Z,82.78
2018-12-25T10:40:53.530Z,82.57
2018-12-25T10:41:53.527Z,82.98
2018-12-25T10:42:53.507Z,82.78
2018-12-25T10:43:53.504Z,82.67
2018-12-25T10:44:53.505Z,82.67
2018-12-25T10:45:53.476Z,82.36
2018-12-25T10:46:53.471Z,82.15
2018-12-25T10:47:53.458Z,82.05
2018-12-25T10:48:53.440Z,82.12
2018-12-25T10:49:53.476Z,82.22
2018-12-25T10:50:53.424Z,81.60
2018-12-25T10:51:53.430Z,81.49
2018-12-25T10:52:53.406Z,81.81
2018-12-25T10:53:53.396Z,81.09
2018-12-25T10:54:53.397Z,81.64
2018-12-25T10:55:53.391Z,81.60
2018-12-25T10:56:53.364Z,81.23
2018-12-25T10:57:53.474Z,81.39
2018-12-25T10:58:53.337Z,81.19
2018-12-25T10:59:53.332Z,81.19
2018-12-25T11:00:53.352Z,81.19
2018-12-25T11:01:53.310Z,81.70
2018-12-25T11:02:53.301Z,81.09
2018-12-25T11:03:53.286Z,81.09
2018-12-25T11:04:53.281Z,81.49
2018-12-25T11:05:53.286Z,81.29
2018-12-25T11:06:53.254Z,81.09
2018-12-25T11:07:53.246Z,81.15
2018-12-25T11:08:53.238Z,81.19
2018-12-25T11:09:53.222Z,81.25
2018-12-25T11:10:53.229Z,81.35
2018-12-25T11:11:53.201Z,81.09
2018-12-25T11:12:53.247Z,80.77
2018-12-25T11:13:53.186Z,81.15
2018-12-25T11:14:53.179Z,81.15
2018-12-25T11:15:53.186Z,80.84
2018-12-25T11:16:53.152Z,81.15
2018-12-25T11:17:53.136Z,80.88
2018-12-25T11:18:53.122Z,80.84
2018-12-25T11:19:53.128Z,80.74
2018-12-25T11:20:53.136Z,80.84
2018-12-25T11:21:53.095Z,81.05
2018-12-25T11:22:53.132Z,81.35
2018-12-25T11:23:53.078Z,80.88
2018-12-25T11:24:53.056Z,81.09
2018-12-25T11:25:53.067Z,81.15
2018-12-25T11:26:53.041Z,81.05
2018-12-25T11:27:53.041Z,81.25
2018-12-25T11:28:53.022Z,81.05
2018-12-25T11:29:53.006Z,81.25
2018-12-25T11:30:53.020Z,81.56
2018-12-25T11:31:53.002Z,81.67
2018-12-25T11:32:52.975Z,81.35
2018-12-25T11:33:52.977Z,81.39
2018-12-25T11:34:52.968Z,81.35
2018-12-25T11:35:52.965Z,81.67
2018-12-25T11:36:52.935Z,81.60
2018-12-25T11:37:52.953Z,81.35
2018-12-25T11:38:52.912Z,81.70
2018-12-25T11:39:52.905Z,81.49
2018-12-25T11:40:52.910Z,82.01
2018-12-25T11:41:52.881Z,81.56
2018-12-25T11:42:52.871Z,81.60
2018-12-25T11:43:52.878Z,81.91
2018-12-25T11:44:52.859Z,81.91
2018-12-25T11:45:52.864Z,81.87
2018-12-25T11:46:52.826Z,81.56
2018-12-25T11:47:52.818Z,81.87
2018-12-25T11:48:52.814Z,81.60
2018-12-25T11:49:52.808Z,81.81
2018-12-25T11:50:52.788Z,81.70
2018-12-25T11:51:52.792Z,81.98
2018-12-25T11:52:52.762Z,81.56
2018-12-25T11:53:52.762Z,81.56
2018-12-25T11:54:52.748Z,81.67
2018-12-25T11:55:52.752Z,81.77
2018-12-25T11:56:52.751Z,81.25
2018-12-25T11:57:52.709Z,81.49
2018-12-25T11:58:52.704Z,81.56
2018-12-25T11:59:52.698Z,81.49
2018-12-25T12:00:52.686Z,81.60
2018-12-25T12:01:52.695Z,81.29
2018-12-25T12:02:52.662Z,81.67
2018-12-25T12:03:52.651Z,81.35
2018-12-25T12:04:52.634Z,81.05
2018-12-25T12:05:52.622Z,80.94
2018-12-25T12:06:52.633Z,80.94
2018-12-25T12:07:52.600Z,81.35
2018-12-25T12:08:52.603Z,81.25
2018-12-25T12:09:52.615Z,81.25
2018-12-25T12:10:52.580Z,81.15
2018-12-25T12:11:52.586Z,80.90
2018-12-25T12:12:52.553Z,81.35
2018-12-25T12:13:52.546Z,81.11
2018-12-25T12:14:52.534Z,81.05
2018-12-25T12:15:52.523Z,81.01
2018-12-25T12:16:52.582Z,80.84
2018-12-25T12:17:52.498Z,81.35
2018-12-25T12:18:52.516Z,81.21
2018-12-25T12:19:52.487Z,80.84
2018-12-25T12:20:52.476Z,81.35
2018-12-25T12:21:52.488Z,81.11
2018-12-25T12:22:52.454Z,81.05
2018-12-25T12:23:52.440Z,81.05
2018-12-25T12:24:52.430Z,81.11
2018-12-25T12:25:52.446Z,81.05
2018-12-25T12:26:52.409Z,81.25
2018-12-25T12:27:52.442Z,80.94
2018-12-25T12:28:52.381Z,81.05
2018-12-25T12:29:52.372Z,81.25
2018-12-25T12:30:52.363Z,80.94
2018-12-25T12:31:52.359Z,81.21
2018-12-25T12:32:52.372Z,80.90
2018-12-25T12:33:52.345Z,81.01
2018-12-25T12:34:52.318Z,81.01
2018-12-25T12:35:52.316Z,80.90
2018-12-25T12:36:52.301Z,80.90
2018-12-25T12:37:52.304Z,81.11
2018-12-25T12:38:52.275Z,81.01
2018-12-25T12:39:52.262Z,80.60
2018-12-25T12:40:52.256Z,81.42
2018-12-25T12:41:52.252Z,80.39
2018-12-25T12:42:52.269Z,80.39
2018-12-25T12:43:52.239Z,80.39
2018-12-25T12:44:52.224Z,80.76
2018-12-25T12:45:52.202Z,80.18
2018-12-25T12:46:52.195Z,80.49
2018-12-25T12:47:52.203Z,80.18
2018-12-25T12:48:52.296Z,80.49
2018-12-25T12:49:52.174Z,80.39
2018-12-25T12:50:52.145Z,80.39
2018-12-25T12:51:52.150Z,80.39
2018-12-25T12:52:52.176Z,80.39